Time;durP1;ratioP1;P1;durP2;ratioP2;P2;SDS_P1;SDS_P2;PMS_P1;PMS_P2;Temp;Humidity;BMP_temperature;BMP_pressure;BME280_temperature;BME280_humidity;BME280_pressure;Samples;Min_cycle;Max_cycle;Signal;HPM_P1;HPM_P2
2021/10/21 00:01:58;;;;;;;6.57;2.10;;;;;;;11.77;100.00;98718.03;4946036;28;20150;-68
2021/10/21 00:04:28;;;;;;;6.20;2.13;;;;;;;11.64;100.00;98695.81;4950610;28;20139;-67
2021/10/21 00:06:56;;;;;;;3.70;1.77;;;;;;;11.55;100.00;98721.34;4947354;28;20047;-67
2021/10/21 00:09:24;;;;;;;3.88;1.63;;;;;;;11.39;100.00;98706.41;4952381;28;20058;-68
2021/10/21 00:11:52;;;;;;;3.40;1.38;;;;;;;11.33;100.00;98700.63;4946258;28;20989;-68
2021/10/21 00:14:20;;;;;;;8.85;1.70;;;;;;;11.32;100.00;98697.09;4950833;28;20051;-68
2021/10/21 00:16:48;;;;;;;3.40;1.50;;;;;;;11.25;100.00;98709.16;4952466;28;20078;-72
2021/10/21 00:19:16;;;;;;;3.55;1.50;;;;;;;11.23;100.00;98719.06;4948729;28;20055;-72
2021/10/21 00:21:48;;;;;;;4.50;1.75;;;;;;;11.21;100.00;98719.19;4951858;28;20133;-71
2021/10/21 00:24:16;;;;;;;7.40;1.75;;;;;;;11.16;100.00;98740.00;4947312;28;20125;-74
2021/10/21 00:26:44;;;;;;;5.38;1.83;;;;;;;11.13;100.00;98739.34;4952270;28;20471;-72
2021/10/21 00:29:12;;;;;;;6.47;1.58;;;;;;;11.13;100.00;98747.34;4949281;28;20074;-71
2021/10/21 00:31:40;;;;;;;4.30;1.67;;;;;;;11.15;100.00;98735.63;4952826;28;20110;-71
2021/10/21 00:34:08;;;;;;;5.15;1.90;;;;;;;11.19;100.00;98733.59;4950677;28;20500;-68
2021/10/21 00:36:36;;;;;;;6.78;1.67;;;;;;;11.13;100.00;98715.34;4951343;28;20130;-68
2021/10/21 00:39:05;;;;;;;6.82;1.63;;;;;;;11.01;100.00;98733.03;4952510;28;20407;-68
2021/10/21 00:41:33;;;;;;;4.07;1.50;;;;;;;10.99;100.00;98741.13;4950507;28;20059;-68
2021/10/21 00:44:07;;;;;;;5.57;1.80;;;;;;;10.96;100.00;98724.47;4946532;28;20089;-68
2021/10/21 00:46:35;;;;;;;5.32;1.73;;;;;;;10.92;100.00;98709.63;4946080;28;20047;-68
2021/10/21 00:49:04;;;;;;;7.70;1.92;;;;;;;10.89;100.00;98692.00;4952426;28;20883;-68
2021/10/21 00:51:32;;;;;;;7.90;1.95;;;;;;;10.88;100.00;98697.44;4948674;28;20814;-69
2021/10/21 00:54:02;;;;;;;5.70;2.03;;;;;;;10.93;100.00;98677.53;4945759;28;20125;-68
2021/10/21 00:56:32;;;;;;;10.07;2.13;;;;;;;10.94;100.00;98686.38;4950151;28;20146;-68
2021/10/21 00:59:00;;;;;;;7.20;2.00;;;;;;;10.96;100.00;98684.44;4951747;28;20074;-69
2021/10/21 01:01:32;;;;;;;12.18;1.75;;;;;;;10.98;100.00;98687.88;4946669;28;20137;-69
2021/10/21 01:04:01;;;;;;;11.40;2.20;;;;;;;10.98;100.00;98717.22;4948399;28;20109;-69
2021/10/21 01:06:28;;;;;;;6.40;1.40;;;;;;;10.95;100.00;98696.09;4952840;28;20101;-68
2021/10/21 01:08:57;;;;;;;5.88;1.42;;;;;;;10.84;100.00;98703.03;4950883;28;20046;-69
2021/10/21 01:11:25;;;;;;;6.43;1.83;;;;;;;10.90;100.00;98700.91;4948904;28;20073;-68
2021/10/21 01:13:55;;;;;;;8.68;1.90;;;;;;;10.84;100.00;98704.81;4948909;28;20125;-73
2021/10/21 01:16:23;;;;;;;6.30;1.67;;;;;;;10.88;100.00;98702.78;4948477;28;20082;-72
2021/10/21 01:18:51;;;;;;;6.00;1.55;;;;;;;10.84;100.00;98696.81;4954430;28;20097;-73
2021/10/21 01:21:20;;;;;;;8.45;1.70;;;;;;;10.91;100.00;98695.44;4947676;28;20054;-73
2021/10/21 01:23:49;;;;;;;6.32;1.50;;;;;;;10.91;98.74;98687.41;4955944;28;20153;-72
2021/10/21 01:26:16;;;;;;;5.97;1.63;;;;;;;10.92;97.70;98682.97;4955046;28;20053;-72
2021/10/21 01:28:44;;;;;;;9.90;1.90;;;;;;;10.88;97.57;98684.97;4955179;28;20065;-68
2021/10/21 01:31:12;;;;;;;5.22;1.85;;;;;;;10.82;98.58;98683.56;4956098;28;20055;-68
2021/10/21 01:33:40;;;;;;;6.57;1.40;;;;;;;10.81;98.78;98697.00;4952223;28;20170;-68
2021/10/21 01:36:13;;;;;;;9.05;1.67;;;;;;;10.88;96.56;98686.78;4955381;28;20133;-72
2021/10/21 01:38:43;;;;;;;5.28;1.40;;;;;;;10.90;96.88;98692.88;4951791;28;20062;-71
2021/10/21 01:41:11;;;;;;;5.38;1.55;;;;;;;10.82;98.28;98675.56;4955248;28;20050;-72
2021/10/21 01:43:43;;;;;;;6.80;1.70;;;;;;;10.83;97.61;98679.94;4947156;28;20082;-71
2021/10/21 01:46:11;;;;;;;7.82;1.88;;;;;;;10.79;97.69;98688.25;4955858;28;20745;-71
2021/10/21 01:48:39;;;;;;;4.82;1.50;;;;;;;10.82;97.15;98686.22;4952932;28;21532;-71
2021/10/21 01:51:07;;;;;;;5.93;1.48;;;;;;;10.81;96.76;98689.00;4952102;28;20138;-70
2021/10/21 01:53:34;;;;;;;9.15;1.98;;;;;;;10.75;97.90;98678.75;4950514;28;20043;-67
2021/10/21 01:56:04;;;;;;;5.75;1.30;;;;;;;10.60;99.98;98684.13;4950668;28;20163;-67
2021/10/21 01:58:32;;;;;;;7.05;1.58;;;;;;;10.51;100.00;98679.44;4953649;28;20055;-68
2021/10/21 02:01:00;;;;;;;5.45;1.55;;;;;;;10.40;100.00;98673.94;4955984;28;20156;-67
2021/10/21 02:03:28;;;;;;;4.15;1.60;;;;;;;10.33;100.00;98673.50;4947777;28;20058;-67
2021/10/21 02:05:56;;;;;;;5.70;1.70;;;;;;;10.29;100.00;98662.13;4953439;28;20058;-69
2021/10/21 02:08:24;;;;;;;11.55;2.10;;;;;;;10.24;100.00;98666.06;4952574;28;20161;-69
2021/10/21 02:10:52;;;;;;;9.50;1.88;;;;;;;10.17;100.00;98670.09;4953329;28;20397;-68
2021/10/21 02:13:21;;;;;;;5.05;1.35;;;;;;;10.19;100.00;98660.19;4946338;28;20078;-68
2021/10/21 02:15:49;;;;;;;5.18;1.73;;;;;;;10.14;100.00;98649.81;4956745;28;20142;-68
2021/10/21 02:18:21;;;;;;;6.10;1.40;;;;;;;10.10;100.00;98640.31;4952320;28;20055;-68
2021/10/21 02:20:49;;;;;;;5.47;1.67;;;;;;;10.08;100.00;98631.59;4956049;28;20532;-69
2021/10/21 02:23:17;;;;;;;2.50;1.15;;;;;;;10.05;100.00;98621.97;4948477;28;20137;-68
2021/10/21 02:25:45;;;;;;;9.25;2.42;;;;;;;10.05;100.00;98615.78;4956062;28;20054;-68
2021/10/21 02:28:13;;;;;;;8.02;1.70;;;;;;;10.07;100.00;98620.03;4953217;28;20070;-69
2021/10/21 02:30:44;;;;;;;5.07;1.70;;;;;;;10.10;100.00;98608.34;4951377;28;20501;-69
2021/10/21 02:33:13;;;;;;;3.92;1.40;;;;;;;10.07;100.00;98614.72;4954664;28;20065;-68
2021/10/21 02:35:42;;;;;;;7.75;2.85;;;;;;;10.05;100.00;98615.78;4951956;28;20058;-69
2021/10/21 02:38:11;;;;;;;5.80;1.60;;;;;;;10.04;100.00;98604.25;4955367;28;20146;-68
2021/10/21 02:40:39;;;;;;;9.45;1.70;;;;;;;10.04;100.00;98601.59;4946265;28;20058;-68
2021/10/21 02:43:07;;;;;;;5.70;1.60;;;;;;;10.07;100.00;98604.06;4956303;28;20059;-69
2021/10/21 02:45:35;;;;;;;10.05;2.90;;;;;;;10.04;100.00;98601.59;4953352;28;20047;-69
2021/10/21 02:48:04;;;;;;;7.68;2.00;;;;;;;10.05;100.00;98592.66;4948593;28;20054;-68
2021/10/21 02:50:32;;;;;;;5.03;1.90;;;;;;;10.09;100.00;98598.63;4953596;28;20061;-69
2021/10/21 02:53:00;;;;;;;7.00;1.65;;;;;;;10.09;100.00;98594.16;4945727;28;20046;-69
2021/10/21 02:55:28;;;;;;;4.93;1.98;;;;;;;10.13;100.00;98591.28;4955743;28;20051;-68
2021/10/21 02:57:56;;;;;;;7.32;1.90;;;;;;;10.10;100.00;98595.88;4953515;28;20050;-69
2021/10/21 03:00:24;;;;;;;10.30;2.25;;;;;;;10.10;100.00;98595.88;4950624;28;20431;-68
2021/10/21 03:02:52;;;;;;;3.65;1.67;;;;;;;10.16;100.00;98578.59;4949781;28;20138;-73
2021/10/21 03:05:21;;;;;;;6.78;2.00;;;;;;;10.15;100.00;98581.38;4949434;28;20058;-73
2021/10/21 03:07:49;;;;;;;7.75;1.95;;;;;;;10.21;100.00;98583.66;4954055;28;20074;-73
2021/10/21 03:10:17;;;;;;;8.50;2.15;;;;;;;10.25;100.00;98575.34;4949581;28;20152;-73
2021/10/21 03:12:46;;;;;;;8.52;2.35;;;;;;;10.29;100.00;98582.19;4949858;28;20042;-73
2021/10/21 03:15:26;;;;;;;8.48;2.03;;;;;;;10.40;100.00;98584.19;4951499;28;20082;-73
2021/10/21 03:17:54;;;;;;;7.30;1.80;;;;;;;10.50;100.00;98572.88;4949567;28;20104;-73
2021/10/21 03:20:24;;;;;;;6.93;2.00;;;;;;;10.55;100.00;98568.09;4952642;28;20059;-73
2021/10/21 03:22:51;;;;;;;6.22;2.03;;;;;;;10.55;100.00;98584.94;4951077;28;20057;-69
2021/10/21 03:25:19;;;;;;;9.00;1.90;;;;;;;10.57;100.00;98564.38;4951370;28;20129;-69
2021/10/21 03:27:47;;;;;;;11.88;2.58;;;;;;;10.56;100.00;98580.47;4949680;28;20126;-69
2021/10/21 03:30:16;;;;;;;5.25;1.98;;;;;;;10.57;100.00;98569.72;4950539;28;20145;-69
2021/10/21 03:32:45;;;;;;;5.82;2.03;;;;;;;10.56;100.00;98565.31;4950395;28;20062;-69
2021/10/21 03:35:13;;;;;;;7.88;2.15;;;;;;;10.50;100.00;98567.53;4949805;28;20305;-69
2021/10/21 03:37:42;;;;;;;6.43;1.92;;;;;;;10.55;100.00;98576.09;4951346;28;20133;-69
2021/10/21 03:40:12;;;;;;;7.75;2.08;;;;;;;10.48;100.00;98583.63;4950508;28;20232;-70
2021/10/21 03:42:40;;;;;;;11.02;2.90;;;;;;;10.45;100.00;98587.38;4952528;28;20280;-69
2021/10/21 03:45:09;;;;;;;7.28;2.33;;;;;;;10.41;100.00;98585.88;4947887;28;20058;-69
2021/10/21 03:47:37;;;;;;;14.43;2.53;;;;;;;10.38;100.00;98595.88;4953679;28;20067;-69
2021/10/21 03:50:05;;;;;;;7.95;2.28;;;;;;;10.34;100.00;98600.56;4948501;28;20082;-69
2021/10/21 03:52:33;;;;;;;7.47;2.38;;;;;;;10.34;100.00;98600.56;4949586;28;20053;-70
2021/10/21 03:55:04;;;;;;;6.88;2.65;;;;;;;10.32;100.00;98604.28;4949808;28;20055;-69
2021/10/21 03:57:31;;;;;;;7.05;2.05;;;;;;;10.36;100.00;98603.97;4949087;28;20054;-69
2021/10/21 04:00:02;;;;;;;7.78;2.08;;;;;;;10.34;100.00;98610.38;4951849;28;20047;-69
2021/10/21 04:02:30;;;;;;;6.40;2.20;;;;;;;10.29;100.00;98622.16;4948210;28;20162;-69
2021/10/21 04:04:58;;;;;;;7.07;2.17;;;;;;;10.29;100.00;98645.31;4952928;28;20835;-69
2021/10/21 04:07:26;;;;;;;5.32;2.17;;;;;;;10.27;100.00;98656.06;4953617;28;20055;-74
2021/10/21 04:09:53;;;;;;;7.68;2.38;;;;;;;10.27;100.00;98671.22;4949131;28;20078;-73
2021/10/21 04:12:23;;;;;;;10.55;3.13;;;;;;;10.28;100.00;98699.56;4948749;28;20142;-73
2021/10/21 04:14:51;;;;;;;14.25;3.03;;;;;;;10.23;100.00;98758.50;4949888;28;20054;-72
2021/10/21 04:17:20;;;;;;;11.85;3.17;;;;;;;10.18;100.00;98789.06;4952252;28;20761;-72
2021/10/21 04:19:49;;;;;;;12.30;2.40;;;;;;;10.03;100.00;98783.75;4948744;28;20062;-72
2021/10/21 04:22:16;;;;;;;5.50;1.45;;;;;;;9.89;100.00;98776.63;4952987;28;20637;-73
2021/10/21 04:24:45;;;;;;;5.85;1.35;;;;;;;9.87;100.00;98788.31;4952543;28;20055;-73
2021/10/21 04:27:13;;;;;;;7.05;1.50;;;;;;;9.83;100.00;98824.09;4947104;28;20498;-73
2021/10/21 04:29:42;;;;;;;3.63;0.77;;;;;;;9.78;99.89;98820.84;4953614;28;20593;-70
2021/10/21 04:32:10;;;;;;;9.52;1.50;;;;;;;9.61;100.00;98856.47;4947589;28;20065;-72
2021/10/21 04:34:38;;;;;;;4.57;1.05;;;;;;;9.63;100.00;98884.72;4949737;28;20337;-73
2021/10/21 04:37:05;;;;;;;4.22;1.17;;;;;;;9.63;100.00;98884.72;4948785;28;20051;-73
2021/10/21 04:39:33;;;;;;;6.45;1.75;;;;;;;9.68;100.00;98925.25;4953731;28;20184;-72
2021/10/21 04:42:02;;;;;;;3.55;1.50;;;;;;;9.62;100.00;98936.28;4951130;28;20153;-71
2021/10/21 04:44:30;;;;;;;6.03;1.27;;;;;;;9.59;100.00;98962.22;4951137;28;20157;-72
2021/10/21 04:47:01;;;;;;;2.25;1.02;;;;;;;9.53;100.00;98974.06;4950596;28;20090;-72
2021/10/21 04:49:29;;;;;;;10.65;1.92;;;;;;;9.50;100.00;98999.09;4950635;28;20534;-72
2021/10/21 04:51:57;;;;;;;7.28;1.70;;;;;;;9.58;100.00;99029.72;4950762;28;20213;-71
2021/10/21 04:54:25;;;;;;;14.68;2.15;;;;;;;9.51;100.00;99058.50;4943383;28;20181;-73
2021/10/21 04:56:52;;;;;;;23.92;3.05;;;;;;;9.50;100.00;99081.63;4953065;28;20460;-71
2021/10/21 04:59:20;;;;;;;11.95;2.72;;;;;;;9.56;100.00;99093.72;4951193;28;20054;-72
2021/10/21 05:01:49;;;;;;;11.38;2.05;;;;;;;9.56;100.00;99109.69;4957563;28;20047;-73
2021/10/21 05:04:19;;;;;;;11.95;2.50;;;;;;;9.59;100.00;99130.84;4955332;28;20059;-73
2021/10/21 05:06:46;;;;;;;13.20;2.60;;;;;;;9.66;100.00;99158.00;4954234;28;20475;-72
2021/10/21 05:09:14;;;;;;;12.80;2.22;;;;;;;9.62;100.00;99170.63;4955299;28;20058;-73
2021/10/21 05:11:42;;;;;;;17.05;3.78;;;;;;;9.65;100.00;99188.22;4950612;28;20041;-73
2021/10/21 05:14:10;;;;;;;7.43;2.22;;;;;;;9.73;100.00;99209.97;4952954;28;20213;-71
2021/10/21 05:16:38;;;;;;;10.25;2.47;;;;;;;9.77;100.00;99219.50;4956054;28;20495;-71
2021/10/21 05:19:06;;;;;;;16.02;3.25;;;;;;;9.78;100.00;99231.03;4950106;28;20055;-73
2021/10/21 05:21:35;;;;;;;15.65;2.60;;;;;;;9.69;100.00;99246.56;4956372;28;20054;-73
2021/10/21 05:24:03;;;;;;;20.77;2.53;;;;;;;9.75;100.00;99265.81;4953837;28;20066;-73
2021/10/21 05:26:31;;;;;;;10.30;2.10;;;;;;;9.77;100.00;99274.59;4953869;28;20604;-68
2021/10/21 05:28:58;;;;;;;8.65;2.58;;;;;;;9.83;99.87;99298.25;4949243;28;20065;-68
2021/10/21 05:31:26;;;;;;;9.80;2.25;;;;;;;9.84;99.68;99297.28;4954753;28;20058;-68
2021/10/21 05:33:54;;;;;;;9.52;2.13;;;;;;;10.06;95.92;99303.19;4955778;28;20088;-68
2021/10/21 05:36:22;;;;;;;12.50;2.03;;;;;;;10.06;96.79;99319.19;4950802;28;20062;-69
2021/10/21 05:38:51;;;;;;;15.45;3.08;;;;;;;10.08;97.90;99333.28;4953779;28;20512;-68
2021/10/21 05:41:19;;;;;;;10.35;2.65;;;;;;;10.27;96.70;99356.28;4950483;28;20074;-69
2021/10/21 05:43:47;;;;;;;12.43;2.30;;;;;;;10.38;95.79;99361.91;4955601;28;20214;-68
2021/10/21 05:46:16;;;;;;;21.33;4.25;;;;;;;10.32;97.72;99380.03;4948183;28;20047;-68
2021/10/21 05:48:43;;;;;;;12.68;2.67;;;;;;;10.47;95.14;99392.53;4955534;28;20062;-73
2021/10/21 05:51:11;;;;;;;15.30;3.13;;;;;;;10.52;93.69;99406.50;4954607;28;20063;-73
2021/10/21 05:53:39;;;;;;;14.70;3.42;;;;;;;10.60;92.27;99425.59;4947796;28;20479;-72
2021/10/21 05:56:08;;;;;;;26.20;3.25;;;;;;;10.48;94.39;99433.44;4952043;28;20055;-73
2021/10/21 05:58:37;;;;;;;10.23;2.45;;;;;;;10.58;87.20;99447.97;4952131;28;20061;-72
2021/10/21 06:01:05;;;;;;;15.98;2.47;;;;;;;10.53;86.48;99456.22;4952872;28;20118;-71
2021/10/21 06:03:36;;;;;;;9.95;1.90;;;;;;;10.63;81.20;99469.94;4950982;28;20047;-71
2021/10/21 06:06:05;;;;;;;7.40;1.90;;;;;;;10.62;79.87;99476.19;4955009;28;20593;-67
2021/10/21 06:08:33;;;;;;;7.95;2.10;;;;;;;10.67;78.65;99489.31;4955103;28;20177;-67
2021/10/21 06:11:03;;;;;;;12.52;2.53;;;;;;;10.49;80.26;99502.69;4947707;28;20134;-67
2021/10/21 06:13:34;;;;;;;6.82;2.22;;;;;;;10.48;80.90;99500.94;4952589;28;20051;-67
2021/10/21 06:16:01;;;;;;;11.13;2.22;;;;;;;10.58;80.32;99488.00;4948536;28;20133;-68
2021/10/21 06:18:29;;;;;;;9.65;2.20;;;;;;;10.60;81.07;99508.28;4952556;28;20050;-67
2021/10/21 06:21:00;;;;;;;31.27;3.28;;;;;;;10.64;82.57;99536.53;4951052;28;20062;-67
2021/10/21 06:23:28;;;;;;;14.85;3.00;;;;;;;10.46;87.42;99564.19;4952981;28;20058;-68
2021/10/21 06:25:56;;;;;;;9.70;3.35;;;;;;;10.10;94.81;99581.09;4953818;28;20740;-68
2021/10/21 06:28:29;;;;;;;14.13;3.08;;;;;;;9.85;99.22;99590.28;4951405;28;20349;-69
2021/10/21 06:30:58;;;;;;;17.02;3.42;;;;;;;9.83;100.00;99585.97;4952800;28;20124;-68
2021/10/21 06:33:26;;;;;;;8.80;2.80;;;;;;;9.91;100.00;99605.13;4946993;28;20164;-68
2021/10/21 06:35:54;;;;;;;12.30;2.90;;;;;;;9.90;99.43;99617.56;4952546;28;20054;-68
2021/10/21 06:38:22;;;;;;;16.30;4.18;;;;;;;9.85;98.28;99616.06;4950285;28;20102;-69
2021/10/21 06:40:50;;;;;;;19.48;3.53;;;;;;;9.80;98.19;99640.25;4953455;28;20058;-69
2021/10/21 06:43:18;;;;;;;9.57;3.00;;;;;;;9.83;96.61;99636.59;4947251;28;20467;-68
2021/10/21 06:45:46;;;;;;;9.80;2.65;;;;;;;9.78;97.30;99646.59;4957650;28;20113;-69
2021/10/21 06:48:15;;;;;;;20.75;3.78;;;;;;;9.76;95.62;99644.00;4951146;28;20059;-69
2021/10/21 06:50:43;;;;;;;11.68;3.47;;;;;;;9.72;96.72;99675.25;4949831;28;20495;-69
2021/10/21 06:53:11;;;;;;;13.90;2.92;;;;;;;9.78;94.97;99697.22;4943066;28;20139;-69
2021/10/21 06:55:39;;;;;;;6.25;2.45;;;;;;;9.77;92.43;99687.50;4948596;28;20252;-69
2021/10/21 06:58:06;;;;;;;7.30;2.55;;;;;;;9.81;84.67;99711.25;4953336;28;20057;-68
2021/10/21 07:00:39;;;;;;;7.55;1.92;;;;;;;9.80;82.58;99717.50;4951703;28;20058;-68
2021/10/21 07:03:07;;;;;;;11.40;2.60;;;;;;;9.77;81.04;99746.09;4954552;28;20074;-68
2021/10/21 07:05:39;;;;;;;9.88;2.70;;;;;;;9.65;82.62;99744.84;4951211;28;20168;-68
2021/10/21 07:08:07;;;;;;;8.70;2.20;;;;;;;9.56;85.42;99754.13;4955385;28;20043;-68
2021/10/21 07:10:35;;;;;;;8.48;2.20;;;;;;;9.53;84.95;99762.25;4950836;28;20549;-68
2021/10/21 07:13:04;;;;;;;8.48;2.80;;;;;;;9.51;86.72;99769.44;4945196;28;20065;-68
2021/10/21 07:15:33;;;;;;;7.97;2.20;;;;;;;9.53;86.03;99789.78;4952156;28;20093;-68
2021/10/21 07:18:01;;;;;;;15.35;2.92;;;;;;;9.55;85.95;99779.03;4948108;28;20117;-68
2021/10/21 07:20:29;;;;;;;9.75;2.47;;;;;;;9.61;84.86;99792.06;4952359;28;20154;-68
2021/10/21 07:22:59;;;;;;;11.65;3.15;;;;;;;9.79;82.71;99810.81;4948656;28;20058;-67
2021/10/21 07:25:28;;;;;;;10.15;2.80;;;;;;;9.83;83.44;99813.28;4947396;28;20133;-68
2021/10/21 07:27:56;;;;;;;7.82;2.40;;;;;;;9.80;83.84;99820.56;4950241;28;20058;-68
2021/10/21 07:30:26;;;;;;;9.38;2.47;;;;;;;9.85;81.97;99823.88;4948214;28;20064;-67
2021/10/21 07:32:54;;;;;;;9.27;2.58;;;;;;;9.91;82.96;99828.94;4952837;28;20051;-70
2021/10/21 07:35:22;;;;;;;14.93;2.40;;;;;;;10.09;81.66;99837.88;4952271;28;20551;-70
2021/10/21 07:37:50;;;;;;;7.70;2.53;;;;;;;10.18;81.90;99849.91;4955388;28;20435;-70
2021/10/21 07:40:20;;;;;;;9.95;2.95;;;;;;;10.09;85.66;99856.53;4955050;28;20109;-70
2021/10/21 07:42:48;;;;;;;8.48;2.47;;;;;;;10.18;85.70;99863.25;4949644;28;20089;-70
2021/10/21 07:45:16;;;;;;;12.98;3.03;;;;;;;10.10;86.10;99883.13;4952368;28;20298;-70
2021/10/21 07:47:45;;;;;;;9.65;3.20;;;;;;;10.10;87.46;99882.28;4947472;28;20062;-70
2021/10/21 07:50:14;;;;;;;7.30;2.40;;;;;;;9.82;91.87;99887.97;4951536;28;20055;-70
2021/10/21 07:52:45;;;;;;;6.00;2.40;;;;;;;9.69;92.41;99903.63;4942817;28;20057;-73
2021/10/21 07:55:13;;;;;;;9.93;2.35;;;;;;;9.56;93.24;99927.25;4951217;28;20126;-72
2021/10/21 07:57:42;;;;;;;11.20;2.20;;;;;;;9.57;94.09;99921.00;4944275;28;20141;-72
2021/10/21 08:00:12;;;;;;;8.23;2.47;;;;;;;9.58;96.13;99920.06;4955154;28;20054;-71
2021/10/21 08:02:42;;;;;;;7.90;2.42;;;;;;;9.54;94.99;99927.31;4952718;28;20628;-72
2021/10/21 08:05:10;;;;;;;9.02;2.20;;;;;;;9.59;95.35;99927.13;4948415;28;20320;-72
2021/10/21 08:07:41;;;;;;;11.90;2.55;;;;;;;9.72;96.00;99940.75;4951679;28;20178;-72
2021/10/21 08:10:09;;;;;;;10.27;1.80;;;;;;;9.76;97.32;99937.06;4947509;28;20058;-73
2021/10/21 08:12:38;;;;;;;7.60;2.05;;;;;;;9.88;97.25;99970.31;4947303;28;20657;-72
2021/10/21 08:15:09;;;;;;;9.02;3.25;;;;;;;9.79;98.54;99960.91;4949121;28;20070;-71
2021/10/21 08:17:37;;;;;;;10.15;2.60;;;;;;;9.82;99.55;99965.22;4955146;28;20058;-71
2021/10/21 08:20:07;;;;;;;12.75;2.50;;;;;;;9.90;100.00;99974.63;4951295;28;20129;-68
2021/10/21 08:22:34;;;;;;;13.70;3.60;;;;;;;9.98;100.00;99973.44;4948166;28;20059;-68
2021/10/21 08:25:03;;;;;;;10.52;3.17;;;;;;;10.02;100.00;99975.88;4952728;28;20484;-68
2021/10/21 08:27:31;;;;;;;3.90;1.60;;;;;;;10.07;98.44;99973.03;4948819;28;20058;-68
2021/10/21 08:29:59;;;;;;;10.23;2.42;;;;;;;10.06;96.64;99982.84;4954896;28;20703;-69
2021/10/21 08:32:29;;;;;;;7.00;2.20;;;;;;;10.09;96.73;99984.47;4952785;28;20138;-69
2021/10/21 08:34:57;;;;;;;5.00;2.10;;;;;;;9.99;97.03;100002.66;4952343;28;20047;-69
2021/10/21 08:37:26;;;;;;;9.10;1.98;;;;;;;10.01;99.11;99990.16;4955037;28;20061;-68
2021/10/21 08:39:54;;;;;;;12.48;2.28;;;;;;;10.01;98.93;99997.28;4952467;28;20078;-68
2021/10/21 08:42:22;;;;;;;12.23;2.50;;;;;;;10.00;100.00;99993.75;4957218;28;20422;-69
2021/10/21 08:44:57;;;;;;;11.43;2.88;;;;;;;10.03;100.00;99996.28;4950956;28;20059;-72
2021/10/21 08:47:26;;;;;;;12.38;1.90;;;;;;;10.06;100.00;100001.50;4956254;28;20046;-71
2021/10/21 08:49:57;;;;;;;9.48;2.72;;;;;;;10.00;99.92;100001.75;4952034;28;20679;-72
2021/10/21 08:52:25;;;;;;;7.93;2.30;;;;;;;9.99;100.00;100013.31;4947195;28;20054;-72
2021/10/21 08:54:55;;;;;;;12.88;2.83;;;;;;;10.11;100.00;100014.59;4951017;28;20459;-70
2021/10/21 08:57:24;;;;;;;9.65;2.15;;;;;;;10.16;100.00;100031.25;4951799;28;20057;-69
2021/10/21 08:59:51;;;;;;;7.20;2.17;;;;;;;10.15;99.25;100031.31;4953205;28;20130;-69
2021/10/21 09:02:21;;;;;;;9.82;2.40;;;;;;;10.26;100.00;100047.75;4951933;28;20094;-69
2021/10/21 09:05:02;;;;;;;9.52;2.60;;;;;;;10.30;98.19;100052.03;4954407;28;20129;-69
2021/10/21 09:10:17;;;;;;;6.22;1.80;;;;;;;10.27;99.51;100058.34;4955386;28;20114;-70
2021/10/21 09:12:46;;;;;;;10.50;2.70;;;;;;;10.32;98.41;100071.50;4945621;28;20051;-70
2021/10/21 09:15:16;;;;;;;9.55;2.17;;;;;;;10.41;97.84;100075.56;4955430;28;20137;-69
2021/10/21 09:17:44;;;;;;;8.15;3.22;;;;;;;10.37;96.03;100073.97;4952212;28;20061;-69
2021/10/21 09:20:30;;;;;;;7.80;2.00;;;;;;;10.38;95.96;100073.91;4948810;28;20245;-69
2021/10/21 09:23:02;;;;;;;10.75;2.50;;;;;;;10.51;96.60;100078.72;4953082;28;20058;-69
2021/10/21 09:25:30;;;;;;;9.43;2.38;;;;;;;10.62;96.79;100087.97;4950867;28;20133;-70
2021/10/21 09:28:01;;;;;;;8.45;2.30;;;;;;;10.57;96.21;100092.66;4953726;28;20054;-69
2021/10/21 09:30:31;;;;;;;8.32;2.22;;;;;;;10.57;94.37;100100.66;4952390;28;21755;-72
2021/10/21 09:33:04;;;;;;;10.88;3.25;;;;;;;10.49;93.96;100104.56;4948469;28;20301;-69
2021/10/21 09:35:35;;;;;;;5.93;2.00;;;;;;;10.50;94.71;100119.66;4951376;28;20138;-69
2021/10/21 09:38:04;;;;;;;11.95;2.22;;;;;;;10.45;92.93;100107.38;4950142;28;20149;-69
2021/10/21 09:40:37;;;;;;;11.10;2.25;;;;;;;10.46;92.12;100122.44;4955780;28;20125;-69
2021/10/21 09:43:06;;;;;;;13.23;2.25;;;;;;;10.48;92.85;100132.19;4949146;28;20061;-68
2021/10/21 09:45:36;;;;;;;15.20;2.65;;;;;;;10.49;89.98;100136.56;4951564;28;20055;-67
2021/10/21 09:48:06;;;;;;;4.88;1.60;;;;;;;10.56;91.07;100138.06;4945778;28;20065;-67
2021/10/21 09:50:36;;;;;;;7.53;1.55;;;;;;;10.60;90.97;100148.53;4949577;28;20055;-67
2021/10/21 09:53:10;;;;;;;7.60;2.03;;;;;;;10.59;89.47;100152.13;4944632;28;20102;-68
2021/10/21 09:55:39;;;;;;;12.10;2.03;;;;;;;10.70;90.70;100164.16;4952527;28;20079;-68
2021/10/21 09:58:09;;;;;;;10.32;2.38;;;;;;;10.61;90.89;100165.41;4953367;28;20646;-68
2021/10/21 10:00:39;;;;;;;13.90;2.38;;;;;;;10.70;88.99;100149.00;4950361;28;20050;-67
2021/10/21 10:03:11;;;;;;;11.93;2.20;;;;;;;10.89;90.88;100157.06;4954129;28;20063;-70
2021/10/21 10:05:40;;;;;;;10.05;2.20;;;;;;;11.30;89.17;100165.00;4951848;28;20047;-70
2021/10/21 10:08:10;;;;;;;8.93;2.28;;;;;;;11.36;83.42;100166.56;4953639;28;20058;-70
2021/10/21 10:10:40;;;;;;;10.57;2.05;;;;;;;11.38;82.43;100160.19;4955524;28;20058;-69
2021/10/21 10:13:10;;;;;;;6.05;1.58;;;;;;;11.34;83.43;100155.94;4949446;28;20047;-69
2021/10/21 10:15:43;;;;;;;8.75;2.40;;;;;;;11.16;83.06;100154.97;4951289;28;20074;-69
2021/10/21 10:18:15;;;;;;;8.27;1.60;;;;;;;11.06;84.20;100147.44;4949828;28;20097;-68
2021/10/21 10:21:06;;;;;;;7.43;1.60;;;;;;;11.19;85.84;100144.13;4952946;28;20051;-69
2021/10/21 10:23:39;;;;;;;3.83;1.45;;;;;;;10.98;83.52;100143.31;4947927;28;20066;-69
2021/10/21 10:26:07;;;;;;;8.93;1.60;;;;;;;10.89;84.91;100142.84;4955670;28;20054;-69
2021/10/21 10:28:53;;;;;;;5.93;1.40;;;;;;;11.24;87.55;100161.75;4950042;28;20089;-68
2021/10/21 10:31:42;;;;;;;9.20;1.88;;;;;;;11.50;89.65;100171.25;4955459;28;20086;-69
2021/10/21 10:34:48;;;;;;;9.70;1.90;;;;;;;11.42;91.84;100184.94;4949397;28;20142;-69
2021/10/21 10:37:57;;;;;;;10.30;2.47;;;;;;;10.08;94.99;100258.19;4953638;28;20051;-69
2021/10/21 10:40:38;;;;;;;3.92;1.40;;;;;;;9.32;100.00;100269.94;4892170;29;20170;-69
2021/10/21 10:43:06;;;;;;;6.78;1.42;;;;;;;8.96;100.00;100299.56;4949569;28;20657;-70
2021/10/21 10:45:54;;;;;;;8.30;1.85;;;;;;;8.87;100.00;100308.75;4949944;28;21571;-69
2021/10/21 10:49:02;;;;;;;3.78;1.23;;;;;;;8.94;100.00;100333.34;4952598;28;20051;-69
2021/10/21 10:51:59;;;;;;;6.82;1.45;;;;;;;8.82;100.00;100355.91;4950763;28;20050;-70
2021/10/21 10:54:56;;;;;;;10.27;1.67;;;;;;;8.73;100.00;100367.69;4947738;28;20055;-70
2021/10/21 10:58:00;;;;;;;9.45;2.05;;;;;;;8.72;100.00;100368.63;4947854;28;20127;-69
2021/10/21 11:00:49;;;;;;;3.58;1.23;;;;;;;8.65;100.00;100376.84;4953876;28;20546;-69
2021/10/21 11:03:32;;;;;;;6.38;1.40;;;;;;;8.59;99.67;100391.22;4945675;28;20042;-67
2021/10/21 11:06:02;;;;;;;7.97;1.67;;;;;;;8.61;100.00;100394.69;4951053;28;20142;-69
2021/10/21 11:08:49;;;;;;;4.60;1.83;;;;;;;8.60;98.69;100404.47;4946251;28;20050;-67
2021/10/21 11:11:40;;;;;;;5.32;1.83;;;;;;;8.71;98.94;100411.22;4944397;28;20059;-67
2021/10/21 11:14:10;;;;;;;6.68;1.52;;;;;;;8.62;99.13;100406.22;4952336;28;20421;-67
2021/10/21 11:16:50;;;;;;;9.25;2.08;;;;;;;8.66;99.31;100416.69;4946423;28;20592;-67
2021/10/21 11:19:52;;;;;;;5.45;1.88;;;;;;;8.78;100.00;100420.75;4950600;28;20374;-68
2021/10/21 11:22:41;;;;;;;5.43;1.95;;;;;;;8.81;97.47;100425.13;4951819;28;20066;-68
2021/10/21 11:25:12;;;;;;;8.23;1.92;;;;;;;8.88;96.25;100429.34;4948000;28;20431;-67
2021/10/21 11:27:43;;;;;;;5.35;1.38;;;;;;;8.92;98.11;100434.50;4949950;28;20082;-68
2021/10/21 11:30:15;;;;;;;8.07;2.08;;;;;;;8.99;98.70;100440.53;4949338;28;20558;-70
2021/10/21 11:33:04;;;;;;;9.30;1.95;;;;;;;9.06;98.78;100452.69;4951425;28;20129;-71
2021/10/21 11:35:34;;;;;;;8.65;1.80;;;;;;;9.11;95.61;100450.75;4949559;28;20138;-70
2021/10/21 11:38:03;;;;;;;7.63;2.15;;;;;;;9.22;97.73;100444.22;4948631;28;20050;-70
2021/10/21 11:40:34;;;;;;;8.27;2.10;;;;;;;9.30;97.80;100451.03;4952870;28;20260;-70
2021/10/21 11:43:04;;;;;;;7.57;1.98;;;;;;;9.32;96.57;100459.81;4952299;28;20174;-71
2021/10/21 11:45:37;;;;;;;3.80;1.40;;;;;;;9.33;92.58;100477.56;4953553;28;20451;-70